createdAt,value
2022-07-29T00:01:44.145Z,44.40
2022-07-29T00:04:14.619Z,44.49
2022-07-29T00:06:43.599Z,44.68
2022-07-29T00:09:11.932Z,44.74
2022-07-29T00:11:40.282Z,44.75
2022-07-29T00:14:08.617Z,44.96
2022-07-29T00:16:37.396Z,45.34
2022-07-29T00:19:05.855Z,45.32
2022-07-29T00:21:37.477Z,45.64
2022-07-29T00:24:06.377Z,45.45
2022-07-29T00:26:34.754Z,45.74
2022-07-29T00:29:33.027Z,45.86
2022-07-29T00:31:54.929Z,45.77
2022-07-29T00:34:40.698Z,45.97
2022-07-29T00:37:10.467Z,46.16
2022-07-29T00:39:38.778Z,46.03
2022-07-29T00:42:07.969Z,45.90
2022-07-29T00:44:40.124Z,46.05
2022-07-29T00:47:09.930Z,46.00
2022-07-29T00:49:38.670Z,46.04
2022-07-29T00:52:10.553Z,46.30
2022-07-29T00:54:44.809Z,46.38
2022-07-29T00:57:14.208Z,46.28
2022-07-29T00:59:43.577Z,46.29
2022-07-29T01:02:12.166Z,46.33
2022-07-29T01:04:41.122Z,46.34
2022-07-29T01:07:11.732Z,46.32
2022-07-29T01:09:45.664Z,46.20
2022-07-29T01:12:17.099Z,46.20
2022-07-29T01:14:46.432Z,46.20
2022-07-29T01:17:22.790Z,46.07
2022-07-29T01:20:00.292Z,46.29
2022-07-29T01:22:43.826Z,46.22
2022-07-29T01:25:45.708Z,46.20
2022-07-29T01:29:05.357Z,46.20
2022-07-29T01:31:58.541Z,46.28
2022-07-29T01:34:37.294Z,46.40
2022-07-29T01:37:15.092Z,46.33
2022-07-29T01:39:46.729Z,46.37
2022-07-29T01:42:25.872Z,46.34
2022-07-29T01:45:01.585Z,46.29
2022-07-29T01:47:40.933Z,46.25
2022-07-29T01:50:14.802Z,46.46
2022-07-29T01:52:51.630Z,46.29
2022-07-29T01:55:22.400Z,46.40
2022-07-29T01:57:51.741Z,46.66
2022-07-29T02:00:22.396Z,46.37
2022-07-29T02:02:52.584Z,46.45
2022-07-29T02:05:25.246Z,46.57
2022-07-29T02:07:56.931Z,46.68
2022-07-29T02:10:31.817Z,46.82
2022-07-29T02:13:00.617Z,46.67
2022-07-29T02:15:34.589Z,46.59
2022-07-29T02:18:09.198Z,46.92
2022-07-29T02:20:39.824Z,46.91
2022-07-29T02:23:11.680Z,46.94
2022-07-29T02:25:40.841Z,47.05
2022-07-29T02:28:10.557Z,47.11
2022-07-29T02:30:45.210Z,46.89
2022-07-29T02:33:17.678Z,46.98
2022-07-29T02:35:49.638Z,47.32
2022-07-29T02:38:36.566Z,47.33
2022-07-29T02:41:12.303Z,47.05
2022-07-29T02:43:41.440Z,47.49
2022-07-29T02:46:29.088Z,47.42
2022-07-29T02:49:06.278Z,47.47
2022-07-29T02:51:44.965Z,47.49
2022-07-29T02:54:28.223Z,47.65
2022-07-29T02:57:00.080Z,47.56
2022-07-29T02:59:32.969Z,47.82
2022-07-29T03:02:04.252Z,47.63
2022-07-29T03:04:34.341Z,47.94
2022-07-29T03:07:03.872Z,47.85
2022-07-29T03:09:32.754Z,48.18
2022-07-29T03:12:02.230Z,48.26
2022-07-29T03:14:32.362Z,48.44
2022-07-29T03:17:02.816Z,48.34
2022-07-29T03:19:31.297Z,48.55
2022-07-29T03:22:00.451Z,48.61
2022-07-29T03:24:35.207Z,48.78
2022-07-29T03:27:04.924Z,48.81
2022-07-29T03:29:34.782Z,48.98
2022-07-29T03:32:08.651Z,49.08
2022-07-29T03:34:39.128Z,49.00
2022-07-29T03:37:08.424Z,49.41
2022-07-29T03:39:43.380Z,49.33
2022-07-29T03:42:17.279Z,49.57
2022-07-29T03:44:49.429Z,49.46
2022-07-29T03:47:43.438Z,49.46
2022-07-29T03:50:16.678Z,49.57
2022-07-29T03:52:45.654Z,49.86
2022-07-29T03:55:14.910Z,49.45
2022-07-29T03:57:43.849Z,49.79
2022-07-29T04:00:13.652Z,49.94
2022-07-29T04:02:47.866Z,49.84
2022-07-29T04:05:17.420Z,49.87
2022-07-29T04:07:46.652Z,49.96
2022-07-29T04:10:16.502Z,50.00
2022-07-29T04:12:45.208Z,49.89
2022-07-29T04:15:13.940Z,49.69
2022-07-29T04:17:43.973Z,50.06
2022-07-29T04:20:14.210Z,50.04
2022-07-29T04:22:42.714Z,49.80
2022-07-29T04:25:11.179Z,50.10
2022-07-29T04:27:59.667Z,49.77
2022-07-29T04:30:28.392Z,49.91
2022-07-29T04:32:58.151Z,50.11
2022-07-29T04:35:27.028Z,50.16
2022-07-29T04:37:55.671Z,50.06
2022-07-29T04:40:24.057Z,49.84
2022-07-29T04:42:52.530Z,50.15
2022-07-29T04:45:23.192Z,50.05
2022-07-29T04:47:51.654Z,50.13
2022-07-29T04:50:21.426Z,50.02
2022-07-29T04:52:49.705Z,50.18
2022-07-29T04:55:18.049Z,50.12
2022-07-29T04:57:46.417Z,50.12
2022-07-29T05:00:15.751Z,49.64
2022-07-29T05:02:44.182Z,49.97
2022-07-29T05:05:12.543Z,49.66
2022-07-29T05:07:44.761Z,49.99
2022-07-29T05:10:13.732Z,49.72
2022-07-29T05:12:42.077Z,49.82
2022-07-29T05:15:12.157Z,49.92
2022-07-29T05:17:40.828Z,49.40
2022-07-29T05:20:10.818Z,49.79
2022-07-29T05:22:39.288Z,49.53
2022-07-29T05:25:10.657Z,49.62
2022-07-29T05:27:39.016Z,49.65
2022-07-29T05:30:09.156Z,49.50
2022-07-29T05:32:37.548Z,49.52
2022-07-29T05:35:06.858Z,49.30
2022-07-29T05:37:35.833Z,49.44
2022-07-29T05:40:04.716Z,49.15
2022-07-29T05:42:34.909Z,49.18
2022-07-29T05:45:04.229Z,49.38
2022-07-29T05:47:32.693Z,49.04
2022-07-29T05:50:01.305Z,49.10
2022-07-29T05:52:29.834Z,48.81
2022-07-29T05:54:58.427Z,48.80
2022-07-29T05:57:26.943Z,48.74
2022-07-29T05:59:56.567Z,48.43
2022-07-29T06:02:24.917Z,48.46
2022-07-29T06:04:53.266Z,48.56
2022-07-29T06:07:21.658Z,48.40
2022-07-29T06:09:49.928Z,48.29
2022-07-29T06:12:18.185Z,48.32
2022-07-29T06:14:48.158Z,47.97
2022-07-29T06:17:20.626Z,47.89
2022-07-29T06:19:48.945Z,47.56
2022-07-29T06:22:18.122Z,47.49
2022-07-29T06:24:46.453Z,47.38
2022-07-29T06:27:14.910Z,47.06
2022-07-29T06:29:43.259Z,47.02
2022-07-29T06:32:11.624Z,46.81
2022-07-29T06:34:41.367Z,46.61
2022-07-29T06:37:15.423Z,46.42
2022-07-29T06:39:44.163Z,46.41
2022-07-29T06:42:12.584Z,46.28
2022-07-29T06:44:40.821Z,46.49
2022-07-29T06:47:09.327Z,46.52
2022-07-29T06:49:37.635Z,46.39
2022-07-29T06:52:07.884Z,46.41
2022-07-29T06:54:36.227Z,46.15
2022-07-29T06:57:04.601Z,46.25
2022-07-29T06:59:35.768Z,46.30
2022-07-29T07:02:04.542Z,46.36
2022-07-29T07:04:33.180Z,46.24
2022-07-29T07:07:01.589Z,45.86
2022-07-29T07:09:40.522Z,46.16
2022-07-29T07:12:09.859Z,45.87
2022-07-29T07:14:38.182Z,45.75
2022-07-29T07:17:07.999Z,45.86
2022-07-29T07:19:36.407Z,46.02
2022-07-29T07:22:04.852Z,45.88
2022-07-29T07:24:34.523Z,45.43
2022-07-29T07:27:02.813Z,45.71
2022-07-29T07:29:31.222Z,45.04
2022-07-29T07:32:01.049Z,44.94
2022-07-29T07:34:30.979Z,44.75
2022-07-29T07:36:59.277Z,44.56
2022-07-29T07:39:27.959Z,43.97
2022-07-29T07:41:57.628Z,43.34
2022-07-29T07:44:26.063Z,42.73
2022-07-29T07:46:54.835Z,42.66
2022-07-29T07:49:23.278Z,42.70
2022-07-29T07:51:51.853Z,43.39
2022-07-29T07:54:20.737Z,43.18
2022-07-29T07:56:53.006Z,43.32
2022-07-29T07:59:23.103Z,43.34
2022-07-29T08:01:56.364Z,43.68
2022-07-29T08:04:28.449Z,43.46
2022-07-29T08:06:58.545Z,43.02
2022-07-29T08:09:30.281Z,42.92
2022-07-29T08:11:59.973Z,42.81
2022-07-29T08:14:29.906Z,43.17
2022-07-29T08:16:58.239Z,42.87
2022-07-29T08:19:26.627Z,42.79
2022-07-29T08:21:55.522Z,42.31
2022-07-29T08:24:42.008Z,42.03
2022-07-29T08:27:33.528Z,41.82
2022-07-29T08:30:00.180Z,41.88
2022-07-29T08:32:51.876Z,41.94
2022-07-29T08:35:17.980Z,42.35
2022-07-29T08:37:46.276Z,42.24
2022-07-29T08:40:15.561Z,41.59
2022-07-29T08:42:43.883Z,41.58
2022-07-29T08:45:13.986Z,41.44
2022-07-29T08:47:42.520Z,41.32
2022-07-29T08:50:12.204Z,40.94
2022-07-29T08:52:43.004Z,40.47
2022-07-29T08:55:12.280Z,40.15
2022-07-29T08:57:51.179Z,40.31
2022-07-29T09:00:26.350Z,40.94
2022-07-29T09:03:00.215Z,41.30
2022-07-29T09:05:29.572Z,41.20
2022-07-29T09:07:58.328Z,40.91
2022-07-29T09:10:26.928Z,41.26
2022-07-29T09:12:57.321Z,41.07
2022-07-29T09:15:27.409Z,41.38
2022-07-29T09:17:56.323Z,41.47
2022-07-29T09:20:25.353Z,40.98
2022-07-29T09:22:54.892Z,39.98
2022-07-29T09:25:36.416Z,39.02
2022-07-29T09:28:09.729Z,37.95
2022-07-29T09:30:53.029Z,38.25
2022-07-29T09:33:22.432Z,38.50
2022-07-29T09:36:02.236Z,38.53
2022-07-29T09:38:32.652Z,38.52
2022-07-29T09:41:05.849Z,38.38
2022-07-29T09:43:35.652Z,38.21
2022-07-29T09:46:14.015Z,38.44
2022-07-29T09:48:42.765Z,38.05
2022-07-29T09:51:24.149Z,37.69
2022-07-29T09:53:55.348Z,36.82
2022-07-29T09:56:41.159Z,35.99
2022-07-29T09:59:12.253Z,35.45
2022-07-29T10:01:42.034Z,34.86
2022-07-29T10:04:10.564Z,34.34
2022-07-29T10:07:04.231Z,34.14
2022-07-29T10:09:34.182Z,33.78
2022-07-29T10:12:14.656Z,33.18
2022-07-29T10:14:44.596Z,32.91
2022-07-29T10:17:14.393Z,32.92
2022-07-29T10:19:43.341Z,33.06
2022-07-29T10:22:12.881Z,33.54
2022-07-29T10:24:41.973Z,34.34
2022-07-29T10:27:11.222Z,35.08
2022-07-29T10:29:39.525Z,35.44
2022-07-29T10:32:31.479Z,36.05
2022-07-29T10:35:17.705Z,37.31
2022-07-29T10:38:17.320Z,37.56
2022-07-29T10:41:19.542Z,37.83
2022-07-29T10:43:51.418Z,38.03
2022-07-29T10:46:20.851Z,37.60
2022-07-29T10:49:15.179Z,36.86
2022-07-29T10:51:59.794Z,36.04
2022-07-29T10:54:51.533Z,35.15
2022-07-29T10:57:53.926Z,34.40
2022-07-29T11:00:34.399Z,33.44
2022-07-29T11:03:04.820Z,33.38
2022-07-29T11:05:59.627Z,33.35
2022-07-29T11:08:28.944Z,32.73
2022-07-29T11:11:34.902Z,32.26
2022-07-29T11:14:03.416Z,32.37
2022-07-29T11:17:05.842Z,32.27
2022-07-29T11:19:37.208Z,32.00
2022-07-29T11:22:12.373Z,31.30
2022-07-29T11:24:50.249Z,30.73
2022-07-29T11:27:23.043Z,30.59
2022-07-29T11:29:58.533Z,31.08
2022-07-29T11:32:37.089Z,30.83
2022-07-29T11:35:37.179Z,31.64
2022-07-29T11:38:31.942Z,31.97
2022-07-29T11:41:27.407Z,31.84
2022-07-29T11:43:58.429Z,32.11
2022-07-29T11:46:47.984Z,31.75
2022-07-29T11:49:32.207Z,31.41
2022-07-29T11:52:03.692Z,30.98
2022-07-29T11:54:52.524Z,30.33
2022-07-29T11:57:36.709Z,29.76
2022-07-29T12:00:12.706Z,29.01
2022-07-29T12:02:48.654Z,29.55
2022-07-29T12:05:36.384Z,29.33
2022-07-29T12:08:14.598Z,29.35
2022-07-29T12:10:45.280Z,29.06
2022-07-29T12:13:15.733Z,28.70
2022-07-29T12:15:47.379Z,28.54
2022-07-29T12:18:23.956Z,27.98
2022-07-29T12:21:03.275Z,27.53
2022-07-29T12:23:34.281Z,27.33
2022-07-29T12:26:10.937Z,27.77
2022-07-29T12:28:50.790Z,27.75
2022-07-29T12:31:43.988Z,27.71
2022-07-29T12:34:07.709Z,27.44
2022-07-29T12:36:36.205Z,27.05
2022-07-29T12:39:05.180Z,26.81
2022-07-29T12:41:35.621Z,26.78
2022-07-29T12:44:04.540Z,27.56
2022-07-29T12:46:33.059Z,27.77
2022-07-29T12:49:04.049Z,27.74
2022-07-29T12:51:34.805Z,27.72
2022-07-29T12:54:11.237Z,27.80
2022-07-29T12:56:43.554Z,27.57
2022-07-29T12:59:23.220Z,27.18
2022-07-29T13:01:54.348Z,26.59
2022-07-29T13:04:31.408Z,26.20
2022-07-29T13:07:06.917Z,26.15
2022-07-29T13:09:43.902Z,25.78
2022-07-29T13:12:15.375Z,26.00
2022-07-29T13:14:46.137Z,25.71
2022-07-29T13:17:17.122Z,26.83
2022-07-29T13:19:48.451Z,26.52
2022-07-29T13:22:20.285Z,26.70
2022-07-29T13:24:51.262Z,25.69
2022-07-29T13:27:22.770Z,26.01
2022-07-29T13:29:52.317Z,26.47
2022-07-29T13:32:28.392Z,27.38
2022-07-29T13:34:58.359Z,27.42
2022-07-29T13:37:27.220Z,28.08
2022-07-29T13:39:56.834Z,28.36
2022-07-29T13:42:26.960Z,28.37
2022-07-29T13:44:55.316Z,28.54
2022-07-29T13:47:32.342Z,28.66
2022-07-29T13:50:01.978Z,28.93
2022-07-29T13:52:30.810Z,29.16
2022-07-29T13:54:59.247Z,29.36
2022-07-29T13:57:30.832Z,29.08
2022-07-29T13:59:59.413Z,29.38
2022-07-29T14:02:27.892Z,29.54
2022-07-29T14:04:56.792Z,29.90
2022-07-29T14:07:25.287Z,29.87
2022-07-29T14:09:53.715Z,30.07
2022-07-29T14:12:22.179Z,30.01
2022-07-29T14:14:51.885Z,29.79
2022-07-29T14:17:20.359Z,29.89
2022-07-29T14:19:48.854Z,30.14
2022-07-29T14:22:19.596Z,29.99
2022-07-29T14:24:50.735Z,30.15
2022-07-29T14:27:20.064Z,30.37
2022-07-29T14:30:10.232Z,30.66
2022-07-29T14:32:38.585Z,30.69
2022-07-29T14:35:08.765Z,30.44
2022-07-29T14:37:40.181Z,30.18
2022-07-29T14:40:11.249Z,30.40
2022-07-29T14:42:40.303Z,30.21
2022-07-29T14:45:11.685Z,30.28
2022-07-29T14:47:41.339Z,30.12
2022-07-29T14:50:11.470Z,30.06
2022-07-29T14:52:40.155Z,29.82
2022-07-29T14:55:16.487Z,29.62
2022-07-29T14:57:48.657Z,29.58
2022-07-29T15:00:19.303Z,29.28
2022-07-29T15:03:03.315Z,28.96
2022-07-29T15:05:32.146Z,28.33
2022-07-29T15:08:01.428Z,27.83
2022-07-29T15:10:30.374Z,27.71
2022-07-29T15:12:59.268Z,27.26
2022-07-29T15:15:29.103Z,27.46
2022-07-29T15:17:57.395Z,27.98
2022-07-29T15:20:27.996Z,28.20
2022-07-29T15:22:57.380Z,28.50
2022-07-29T15:25:26.313Z,28.75
2022-07-29T15:28:01.237Z,29.14
2022-07-29T15:30:34.276Z,28.83
2022-07-29T15:33:04.135Z,28.85
2022-07-29T15:35:32.621Z,28.79
2022-07-29T15:38:00.946Z,28.92
2022-07-29T15:40:29.583Z,29.21
2022-07-29T15:42:58.250Z,29.23
2022-07-29T15:45:26.680Z,28.78
2022-07-29T15:48:01.831Z,28.61
2022-07-29T15:50:30.163Z,28.11
2022-07-29T15:52:58.487Z,27.75
2022-07-29T15:55:27.184Z,27.82
2022-07-29T15:58:00.310Z,27.99
2022-07-29T16:00:29.227Z,27.19
2022-07-29T16:02:57.634Z,26.77
2022-07-29T16:05:29.551Z,27.00
2022-07-29T16:07:59.639Z,26.95
2022-07-29T16:10:28.123Z,26.73
2022-07-29T16:12:56.451Z,26.08
2022-07-29T16:15:25.033Z,25.25
2022-07-29T16:17:53.336Z,25.03
2022-07-29T16:20:22.393Z,24.23
2022-07-29T16:22:52.442Z,23.84
2022-07-29T16:25:20.952Z,24.57
2022-07-29T16:27:49.292Z,24.61
2022-07-29T16:30:17.625Z,24.66
2022-07-29T16:32:45.916Z,25.12
2022-07-29T16:35:14.248Z,26.15
2022-07-29T16:37:42.563Z,27.34
2022-07-29T16:40:12.753Z,27.92
2022-07-29T16:42:46.897Z,28.95
2022-07-29T16:45:16.446Z,29.62
2022-07-29T16:47:46.511Z,30.10
2022-07-29T16:50:14.918Z,29.36
2022-07-29T16:52:43.260Z,28.67
2022-07-29T16:55:13.015Z,27.80
2022-07-29T16:57:42.665Z,27.37
2022-07-29T17:00:12.734Z,27.90
2022-07-29T17:02:41.164Z,28.12
2022-07-29T17:05:12.223Z,28.02
2022-07-29T17:07:40.894Z,27.86
2022-07-29T17:10:10.950Z,27.81
2022-07-29T17:12:42.035Z,27.74
2022-07-29T17:15:12.886Z,28.34
2022-07-29T17:17:56.414Z,29.39
2022-07-29T17:20:26.675Z,30.53
2022-07-29T17:22:55.369Z,31.10
2022-07-29T17:25:25.001Z,31.55
2022-07-29T17:28:00.591Z,32.32
2022-07-29T17:30:29.756Z,32.52
2022-07-29T17:32:58.154Z,33.20
2022-07-29T17:35:43.820Z,33.28
2022-07-29T17:38:12.183Z,33.83
2022-07-29T17:40:40.506Z,34.03
2022-07-29T17:43:10.273Z,34.68
2022-07-29T17:45:48.771Z,34.70
2022-07-29T17:48:17.617Z,35.22
2022-07-29T17:50:46.248Z,35.15
2022-07-29T17:53:17.016Z,35.47
2022-07-29T17:55:46.261Z,35.81
2022-07-29T17:58:16.696Z,36.20
2022-07-29T18:00:45.388Z,36.27
2022-07-29T18:03:13.793Z,36.80
2022-07-29T18:05:42.733Z,36.86
2022-07-29T18:08:11.743Z,37.24
2022-07-29T18:10:41.310Z,37.42
2022-07-29T18:13:09.708Z,37.70
2022-07-29T18:15:39.432Z,37.73
2022-07-29T18:18:08.494Z,38.11
2022-07-29T18:20:36.878Z,38.23
2022-07-29T18:23:05.189Z,38.50
2022-07-29T18:25:33.900Z,38.91
2022-07-29T18:28:02.365Z,38.78
2022-07-29T18:30:33.710Z,39.04
2022-07-29T18:33:21.428Z,39.32
2022-07-29T18:36:11.282Z,39.29
2022-07-29T18:38:41.113Z,39.61
2022-07-29T18:41:09.520Z,39.61
2022-07-29T18:43:37.844Z,39.87
2022-07-29T18:46:06.660Z,40.11
2022-07-29T18:48:36.850Z,40.34
2022-07-29T18:51:09.198Z,40.35
2022-07-29T18:53:38.482Z,40.52
2022-07-29T18:56:06.820Z,40.67
2022-07-29T18:58:37.047Z,40.90
2022-07-29T19:01:05.468Z,41.22
2022-07-29T19:03:33.836Z,41.42
2022-07-29T19:06:03.495Z,41.52
2022-07-29T19:08:32.757Z,41.78
2022-07-29T19:11:01.116Z,41.94
2022-07-29T19:13:29.593Z,42.03
2022-07-29T19:15:58.023Z,42.23
2022-07-29T19:18:26.467Z,42.64
2022-07-29T19:20:54.768Z,42.74
2022-07-29T19:23:25.655Z,42.72
2022-07-29T19:25:54.249Z,42.76
2022-07-29T19:28:23.112Z,42.92
2022-07-29T19:30:51.859Z,43.41
2022-07-29T19:33:20.864Z,43.47
2022-07-29T19:35:52.951Z,43.66
2022-07-29T19:38:24.670Z,43.69
2022-07-29T19:40:53.086Z,43.47
2022-07-29T19:43:52.093Z,44.01
2022-07-29T19:46:09.843Z,43.98
2022-07-29T19:48:38.276Z,44.09
2022-07-29T19:51:06.706Z,44.33
2022-07-29T19:53:36.357Z,44.50
2022-07-29T19:56:05.296Z,44.26
2022-07-29T19:58:37.435Z,44.74
2022-07-29T20:01:10.377Z,44.79
2022-07-29T20:03:40.668Z,45.03
2022-07-29T20:06:09.109Z,45.46
2022-07-29T20:08:38.797Z,45.36
2022-07-29T20:11:07.747Z,45.90
2022-07-29T20:13:36.116Z,46.39
2022-07-29T20:16:08.068Z,46.71
2022-07-29T20:18:36.995Z,46.58
2022-07-29T20:21:05.517Z,47.36
2022-07-29T20:23:33.979Z,47.42
2022-07-29T20:26:08.714Z,47.75
2022-07-29T20:28:40.181Z,48.16
2022-07-29T20:31:08.758Z,48.75
2022-07-29T20:33:37.153Z,48.93
2022-07-29T20:36:07.076Z,49.05
2022-07-29T20:38:35.448Z,49.47
2022-07-29T20:41:05.311Z,49.76
2022-07-29T20:43:36.060Z,49.83
2022-07-29T20:46:07.369Z,50.21
2022-07-29T20:48:35.736Z,50.24
2022-07-29T20:51:04.209Z,50.44
2022-07-29T20:53:33.719Z,50.33
2022-07-29T20:56:02.076Z,50.67
2022-07-29T20:58:32.604Z,51.05
2022-07-29T21:01:01.038Z,51.31
2022-07-29T21:03:29.357Z,51.59
2022-07-29T21:05:57.708Z,51.68
2022-07-29T21:08:27.528Z,51.62
2022-07-29T21:10:56.169Z,51.70
2022-07-29T21:13:25.501Z,51.82
2022-07-29T21:15:59.090Z,51.93
2022-07-29T21:18:32.579Z,51.84
2022-07-29T21:21:02.237Z,51.87
2022-07-29T21:23:31.159Z,52.01
2022-07-29T21:25:59.826Z,51.95
2022-07-29T21:28:27.173Z,52.08
2022-07-29T21:30:58.461Z,52.20
2022-07-29T21:33:28.475Z,52.58
2022-07-29T21:36:35.437Z,52.60
2022-07-29T21:38:45.855Z,52.64
2022-07-29T21:41:15.363Z,52.76
2022-07-29T21:43:43.672Z,53.21
2022-07-29T21:46:14.462Z,53.08
2022-07-29T21:48:44.672Z,53.31
2022-07-29T21:51:13.108Z,53.48
2022-07-29T21:53:41.606Z,53.51
2022-07-29T21:56:14.502Z,53.70
2022-07-29T21:58:43.400Z,53.85
2022-07-29T22:01:13.098Z,53.92
2022-07-29T22:03:41.427Z,54.35
2022-07-29T22:06:16.655Z,54.41
2022-07-29T22:08:47.785Z,54.47
2022-07-29T22:11:16.139Z,54.88
2022-07-29T22:13:44.451Z,54.86
2022-07-29T22:16:15.017Z,55.28
2022-07-29T22:18:46.667Z,55.39
2022-07-29T22:21:15.468Z,55.61
2022-07-29T22:23:43.767Z,55.77
2022-07-29T22:26:12.321Z,56.21
2022-07-29T22:28:40.696Z,56.28
2022-07-29T22:31:09.085Z,56.59
2022-07-29T22:33:39.096Z,56.58
2022-07-29T22:36:08.231Z,56.95
2022-07-29T22:38:36.521Z,57.34
2022-07-29T22:41:05.073Z,57.60
2022-07-29T22:43:33.951Z,57.84
2022-07-29T22:46:02.396Z,58.02
2022-07-29T22:48:31.245Z,58.17
2022-07-29T22:51:01.338Z,58.54
2022-07-29T22:53:29.699Z,58.53
2022-07-29T22:55:58.045Z,58.52
2022-07-29T22:58:26.503Z,58.63
2022-07-29T23:00:55.133Z,58.97
2022-07-29T23:03:23.799Z,59.16
2022-07-29T23:05:52.444Z,59.46
2022-07-29T23:08:22.254Z,59.49
2022-07-29T23:10:50.628Z,59.86
2022-07-29T23:13:18.960Z,60.18
2022-07-29T23:15:47.371Z,60.33
2022-07-29T23:18:15.950Z,60.59
2022-07-29T23:20:45.424Z,60.80
2022-07-29T23:23:13.959Z,61.08
2022-07-29T23:25:43.853Z,61.21
2022-07-29T23:28:13.271Z,61.57
2022-07-29T23:30:42.107Z,61.77
2022-07-29T23:33:10.476Z,62.18
2022-07-29T23:35:38.805Z,62.25
2022-07-29T23:38:07.412Z,62.49
2022-07-29T23:40:35.821Z,62.76
2022-07-29T23:43:08.797Z,62.69
2022-07-29T23:45:44.469Z,63.18
2022-07-29T23:48:14.505Z,63.45
2022-07-29T23:50:43.321Z,63.44
2022-07-29T23:53:12.095Z,63.92
2022-07-29T23:55:40.439Z,64.00
2022-07-29T23:58:10.161Z,63.88
